Time;durP1;ratioP1;P1;durP2;ratioP2;P2;SDS_P1;SDS_P2;PMS_P1;PMS_P2;Temp;Humidity;BMP_temperature;BMP_pressure;BME280_temperature;BME280_humidity;BME280_pressure;Samples;Min_cycle;Max_cycle;Signal;HPM_P1;HPM_P2
2022/12/21 00:01:29;;;;;;;33.15;14.25;;;;;;;-144.47;79.41;61518.81;4989494;28;20026;-68
2022/12/21 00:03:59;;;;;;;30.55;13.50;;;;;;;-144.47;79.49;61508.88;4990854;28;20042;-67
2022/12/21 00:06:27;;;;;;;34.00;13.50;;;;;;;-144.47;79.88;61548.69;4992573;28;20026;-68
2022/12/21 00:08:55;;;;;;;33.90;14.20;;;;;;;-144.47;79.93;61530.78;5000417;28;20054;-68
2022/12/21 00:11:21;;;;;;;31.98;13.45;;;;;;;-144.47;80.03;61506.88;4993337;28;20034;-67
2022/12/21 00:13:47;;;;;;;30.33;13.40;;;;;;;-144.47;80.20;61512.84;4992695;28;20026;-67
2022/12/21 00:16:16;;;;;;;37.28;14.52;;;;;;;-144.47;80.53;61518.81;4992830;28;20026;-66
2022/12/21 00:18:42;;;;;;;32.53;13.55;;;;;;;-144.47;80.08;61502.91;4992124;28;20033;-67
2022/12/21 00:21:15;;;;;;;34.55;13.75;;;;;;;-144.47;80.10;61502.91;4992748;28;20056;-68
2022/12/21 00:23:42;;;;;;;30.40;12.55;;;;;;;-144.47;79.93;61520.81;4993227;28;20573;-67
2022/12/21 00:26:10;;;;;;;29.90;12.85;;;;;;;-144.47;79.60;61500.91;4992528;28;20034;-69
2022/12/21 00:28:35;;;;;;;31.60;13.27;;;;;;;-144.47;79.89;61496.91;4990339;28;20041;-67
2022/12/21 00:31:15;;;;;;;29.92;12.65;;;;;;;-144.47;79.42;61526.78;4999680;28;20023;-68
2022/12/21 00:33:42;;;;;;;29.90;12.60;;;;;;;-144.47;79.50;61502.91;4992654;28;20027;-69
2022/12/21 00:36:11;;;;;;;30.88;12.38;;;;;;;-144.47;79.51;61490.94;4992303;28;20022;-68
2022/12/21 00:38:36;;;;;;;34.33;13.23;;;;;;;-144.47;79.34;61498.91;4992140;28;20113;-67
2022/12/21 00:41:04;;;;;;;27.95;11.00;;;;;;;-144.47;79.49;61496.91;4998394;28;20268;-67
2022/12/21 00:43:31;;;;;;;25.08;12.63;;;;;;;-144.47;79.33;61526.78;5000201;28;20034;-68
2022/12/21 00:45:57;;;;;;;27.38;12.32;;;;;;;-144.47;79.36;61532.75;4993224;28;20089;-68
2022/12/21 00:48:27;;;;;;;30.48;12.18;;;;;;;-144.47;79.70;61477.00;4990948;28;20053;-66
2022/12/21 00:50:52;;;;;;;30.13;12.90;;;;;;;-144.47;79.75;61500.91;4992564;28;20030;-68
2022/12/21 00:53:18;;;;;;;32.22;12.48;;;;;;;-144.47;79.98;61502.91;4992511;28;20027;-68
2022/12/21 00:55:58;;;;;;;36.10;13.25;;;;;;;-144.47;79.88;61492.94;4991969;28;20026;-67
2022/12/21 00:58:25;;;;;;;28.92;12.98;;;;;;;-144.47;79.96;61514.84;4991347;28;20399;-69
2022/12/21 01:00:52;;;;;;;29.52;12.02;;;;;;;-144.47;79.99;61518.81;4992292;28;20519;-68
2022/12/21 01:03:17;;;;;;;39.35;12.80;;;;;;;-144.47;80.26;61512.84;4991940;28;20034;-68
2022/12/21 01:05:47;;;;;;;27.95;12.23;;;;;;;-144.47;80.29;61526.78;4997379;28;20399;-68
2022/12/21 01:08:14;;;;;;;31.17;12.98;;;;;;;-144.47;80.36;61490.94;4985469;28;20527;-67
2022/12/21 01:10:39;;;;;;;31.83;12.80;;;;;;;-144.47;80.72;61526.78;4991865;28;20502;-69
2022/12/21 01:13:05;;;;;;;27.55;11.50;;;;;;;-144.47;81.08;61504.88;4992368;28;20097;-65
2022/12/21 01:15:30;;;;;;;29.80;12.45;;;;;;;-144.47;81.38;61538.75;4991172;28;20032;-67
2022/12/21 01:17:55;;;;;;;28.67;12.93;;;;;;;-144.47;81.63;61550.69;4990909;28;20037;-69
2022/12/21 01:20:21;;;;;;;28.80;11.13;;;;;;;-144.47;82.03;61508.88;4991484;28;20495;-70
2022/12/21 01:22:47;;;;;;;30.35;12.40;;;;;;;-144.47;82.34;61522.81;4991887;28;20459;-67
2022/12/21 01:25:12;;;;;;;31.55;11.68;;;;;;;-144.47;82.06;61530.78;4991220;28;20233;-68
2022/12/21 01:27:37;;;;;;;32.58;13.10;;;;;;;-144.47;82.07;61558.66;4991306;28;20030;-68
2022/12/21 01:30:03;;;;;;;27.67;11.32;;;;;;;-144.47;82.45;61532.75;4991027;28;20058;-68
2022/12/21 01:32:28;;;;;;;27.67;12.45;;;;;;;-144.47;82.57;61536.75;4992102;28;20034;-68
2022/12/21 01:34:54;;;;;;;25.00;10.77;;;;;;;-144.47;82.65;61526.78;4991270;28;20116;-67
2022/12/21 01:37:19;;;;;;;30.17;12.77;;;;;;;-144.47;82.72;61564.63;4990718;28;20105;-69
2022/12/21 01:39:44;;;;;;;33.90;12.82;;;;;;;-144.47;83.03;61524.78;4990657;28;20034;-67
2022/12/21 01:42:12;;;;;;;33.05;12.00;;;;;;;-144.47;83.19;61550.69;4992097;28;20038;-68
2022/12/21 01:45:13;;;;;;;25.55;12.02;;;;;;;-144.47;83.46;61584.53;4979370;28;20039;-67
2022/12/21 01:47:54;;;;;;;25.85;11.05;;;;;;;-144.47;83.64;61574.59;4991025;28;20075;-67
2022/12/21 01:50:22;;;;;;;28.40;11.27;;;;;;;-144.47;83.79;61604.44;4980120;28;20053;-69
2022/12/21 01:52:48;;;;;;;33.63;12.75;;;;;;;-144.47;84.23;61588.53;4991305;28;20050;-68
2022/12/21 01:55:14;;;;;;;31.83;12.77;;;;;;;-144.47;84.58;61572.59;4990965;28;20034;-66
2022/12/21 01:57:39;;;;;;;28.75;11.55;;;;;;;-144.47;84.98;61562.63;4990852;28;20026;-67
2022/12/21 02:00:08;;;;;;;30.05;12.52;;;;;;;-144.47;85.58;61568.59;4990172;28;20026;-68
2022/12/21 02:02:39;;;;;;;30.83;11.98;;;;;;;-144.47;85.85;61582.53;4990828;28;20053;-68
2022/12/21 02:05:22;;;;;;;28.25;11.65;;;;;;;-144.47;86.30;61618.38;4992939;28;20049;-68
2022/12/21 02:07:48;;;;;;;32.58;11.48;;;;;;;-144.47;86.79;61618.38;4995049;28;20026;-67
2022/12/21 02:10:14;;;;;;;29.50;12.27;;;;;;;-144.47;87.40;61638.31;4990727;28;20041;-69
2022/12/21 02:12:41;;;;;;;26.15;11.25;;;;;;;-144.47;87.84;61642.28;4991475;28;20395;-67
2022/12/21 02:15:07;;;;;;;28.65;12.30;;;;;;;-144.47;88.79;61658.22;4990947;28;20026;-66
2022/12/21 02:18:08;;;;;;;27.00;11.45;;;;;;;-144.47;89.04;61630.34;4990382;28;20101;-68
2022/12/21 02:20:44;;;;;;;33.33;12.07;;;;;;;-144.47;90.12;61682.09;4990994;28;20022;-68
2022/12/21 02:23:21;;;;;;;33.75;12.88;;;;;;;-144.47;90.85;61690.06;4991772;28;20026;-68
2022/12/21 02:26:05;;;;;;;30.50;11.70;;;;;;;-144.47;90.75;61706.00;4989656;28;20022;-69
2022/12/21 02:28:44;;;;;;;25.65;11.65;;;;;;;-144.47;91.61;61741.84;4983517;28;20033;-69
2022/12/21 02:31:18;;;;;;;;;;;;;;;-144.47;92.61;61793.63;4997282;28;20057;-67
2022/12/21 02:34:06;;;;;;;29.98;12.05;;;;;;;-144.47;92.76;61801.59;4990126;28;19924;-67
2022/12/21 02:36:47;;;;;;;29.85;11.60;;;;;;;-144.47;93.22;61841.41;4990013;28;20423;-66
2022/12/21 02:39:21;;;;;;;28.77;11.13;;;;;;;-144.47;93.57;61853.38;4989738;28;20232;-68
2022/12/21 02:41:52;;;;;;;26.65;12.98;;;;;;;-144.47;94.05;61843.41;4991298;28;20194;-70
2022/12/21 02:44:36;;;;;;;27.55;11.95;;;;;;;-144.47;94.55;61859.34;4986219;28;20396;-68
2022/12/21 02:47:16;;;;;;;29.20;11.70;;;;;;;-144.47;95.00;61897.19;4989981;28;20045;-69
2022/12/21 02:49:48;;;;;;;25.15;10.75;;;;;;;-144.47;95.48;61933.03;4989572;28;20038;-71
2022/12/21 02:52:35;;;;;;;25.10;11.02;;;;;;;-144.47;95.70;61986.78;4989843;28;20029;-67
2022/12/21 02:55:01;;;;;;;30.25;11.10;;;;;;;-144.47;95.67;61964.88;4989396;28;20647;-67
2022/12/21 02:57:31;;;;;;;25.30;11.18;;;;;;;-144.47;95.88;61996.75;4990025;28;20036;-67
2022/12/21 02:59:59;;;;;;;25.90;10.88;;;;;;;-144.47;96.28;62030.59;4989514;28;20037;-70
2022/12/21 03:02:41;;;;;;;26.00;11.30;;;;;;;-144.47;96.07;62038.56;4989036;28;20037;-65
2022/12/21 03:05:33;;;;;;;24.70;11.10;;;;;;;-144.47;96.40;62052.50;4988481;28;20408;-68
2022/12/21 03:08:07;;;;;;;28.67;11.90;;;;;;;-144.47;96.76;62084.38;4992781;28;20095;-66
2022/12/21 03:10:59;;;;;;;28.90;12.45;;;;;;;-144.47;96.81;62140.16;4990202;28;20026;-67
2022/12/21 03:13:33;;;;;;;27.23;11.85;;;;;;;-144.47;96.69;62177.97;4989586;28;20057;-67
2022/12/21 03:16:12;;;;;;;27.35;12.07;;;;;;;-144.47;96.78;62158.06;4990060;28;20423;-68
2022/12/21 03:18:59;;;;;;;24.67;11.50;;;;;;;-144.47;96.68;62138.16;4989144;28;20034;-65
2022/12/21 03:21:37;;;;;;;25.65;12.00;;;;;;;-144.47;96.76;62217.81;4989416;28;20129;-68
2022/12/21 03:24:16;;;;;;;24.92;11.60;;;;;;;-144.47;97.32;62197.91;4989666;28;20069;-65
2022/12/21 03:26:50;;;;;;;22.75;11.48;;;;;;;-144.47;97.35;62275.56;4989363;28;20030;-65
2022/12/21 03:29:21;;;;;;;24.95;11.65;;;;;;;-144.47;97.38;62227.78;4988736;28;20023;-67
2022/12/21 03:31:59;;;;;;;28.85;12.38;;;;;;;-144.47;97.40;62287.53;4993343;28;20067;-67
2022/12/21 03:34:39;;;;;;;32.75;11.85;;;;;;;-144.47;97.67;62251.69;4982625;28;20034;-67
2022/12/21 03:37:10;;;;;;;22.77;11.00;;;;;;;-144.47;97.81;62293.50;4988748;28;20034;-68
2022/12/21 03:39:39;;;;;;;28.35;12.30;;;;;;;-144.47;97.85;62301.47;4992381;28;20103;-68
2022/12/21 03:42:17;;;;;;;28.27;11.15;;;;;;;-144.47;97.93;62333.34;4993997;28;20037;-69
2022/12/21 03:45:12;;;;;;;23.33;11.10;;;;;;;-144.47;98.22;62391.09;4993200;28;20032;-70
2022/12/21 03:47:55;;;;;;;24.83;10.95;;;;;;;-144.47;98.16;62442.88;4982569;28;20268;-67
2022/12/21 03:50:25;;;;;;;29.10;10.82;;;;;;;-144.47;98.35;62422.97;4992721;28;20058;-67
2022/12/21 03:52:58;;;;;;;27.80;11.77;;;;;;;-144.47;98.65;62440.88;4997102;28;20076;-68
2022/12/21 03:55:29;;;;;;;24.95;11.20;;;;;;;-144.47;98.83;62480.72;4999318;28;20070;-69
2022/12/21 03:57:56;;;;;;;23.13;10.80;;;;;;;-144.47;98.91;62506.63;4992999;28;20022;-68
2022/12/21 04:00:22;;;;;;;22.75;10.95;;;;;;;-144.47;99.08;62484.72;4993174;28;20499;-68
2022/12/21 04:02:59;;;;;;;24.80;10.15;;;;;;;-144.47;99.51;62528.53;4991547;28;20077;-68
2022/12/21 04:05:30;;;;;;;26.17;11.25;;;;;;;-144.47;99.29;62600.22;4992709;28;20026;-68
2022/12/21 04:07:56;;;;;;;21.80;11.20;;;;;;;-144.47;99.41;62624.13;4993100;28;20031;-68
2022/12/21 04:10:23;;;;;;;28.23;12.40;;;;;;;-144.47;99.82;62632.09;4992585;28;20026;-67
2022/12/21 04:12:48;;;;;;;24.65;11.88;;;;;;;-144.47;99.82;62656.00;4993365;28;20084;-68
2022/12/21 04:15:19;;;;;;;25.20;11.52;;;;;;;-144.47;99.90;62667.97;4991528;28;20484;-68
2022/12/21 04:17:47;;;;;;;25.73;11.65;;;;;;;-144.47;100.00;62693.84;4992936;28;20121;-68
2022/12/21 04:20:21;;;;;;;29.10;11.47;;;;;;;-144.47;100.00;62729.72;4991986;28;20066;-66
2022/12/21 04:28:21;;;;;;;30.33;10.55;;;;;;;-144.47;100.00;62819.34;4987479;28;20049;-67
2022/12/21 04:30:47;;;;;;;25.50;10.55;;;;;;;-144.47;100.00;62817.34;4993220;28;20022;-69
2022/12/21 04:33:16;;;;;;;29.48;11.90;;;;;;;-144.47;100.00;62809.38;4992684;28;20033;-68
2022/12/21 04:38:30;;;;;;;25.80;10.30;;;;;;;-144.47;100.00;62879.09;4999735;28;20091;-67
2022/12/21 04:40:57;;;;;;;24.70;11.27;;;;;;;-144.47;100.00;62879.09;4992537;28;20472;-68
2022/12/21 04:43:23;;;;;;;27.25;12.10;;;;;;;-144.47;100.00;62871.13;4992433;28;20526;-67
2022/12/21 04:45:48;;;;;;;29.92;14.80;;;;;;;-144.47;100.00;62914.97;4992282;28;20038;-67
2022/12/21 04:48:15;;;;;;;49.10;20.08;;;;;;;-144.47;100.00;62889.06;4991098;28;20045;-68
2022/12/21 04:50:42;;;;;;;40.88;19.88;;;;;;;-144.47;100.00;62922.94;4991226;28;20080;-66
2022/12/21 04:53:08;;;;;;;54.33;22.17;;;;;;;-144.47;100.00;62940.84;4992493;28;20125;-68
2022/12/21 04:55:33;;;;;;;47.75;22.45;;;;;;;-144.47;100.00;62964.75;4991052;28;20030;-67
2022/12/21 04:57:59;;;;;;;33.97;15.82;;;;;;;-144.47;100.00;62952.81;4992010;28;20026;-69
2022/12/21 05:00:24;;;;;;;30.75;13.18;;;;;;;-144.47;100.00;62910.97;4990524;28;20392;-70
2022/12/21 05:02:50;;;;;;;25.77;12.68;;;;;;;-144.47;100.00;62948.81;4992477;28;20069;-67
2022/12/21 05:05:16;;;;;;;30.15;13.52;;;;;;;-144.47;100.00;62924.91;5000693;28;20510;-68
2022/12/21 05:07:41;;;;;;;29.25;13.18;;;;;;;-144.47;100.00;62952.81;4990868;28;20138;-68
2022/12/21 05:10:08;;;;;;;32.45;13.70;;;;;;;-144.47;100.00;62948.81;4990854;28;20021;-67
2022/12/21 05:12:33;;;;;;;31.15;14.63;;;;;;;-144.47;100.00;62984.69;4994137;28;20125;-67
2022/12/21 05:14:58;;;;;;;40.95;18.23;;;;;;;-144.47;100.00;62984.69;4995135;28;20464;-67
2022/12/21 05:17:23;;;;;;;38.85;18.30;;;;;;;-144.47;100.00;62972.72;4995354;28;20457;-68
2022/12/21 05:19:49;;;;;;;25.05;12.80;;;;;;;-144.47;100.00;62960.78;4991747;28;20058;-69
2022/12/21 05:22:20;;;;;;;34.42;11.82;;;;;;;-144.47;100.00;62962.78;4991524;28;20031;-68
2022/12/21 05:24:45;;;;;;;24.63;11.93;;;;;;;-144.47;100.00;63014.56;4993829;28;20022;-70
2022/12/21 05:27:12;;;;;;;30.65;14.35;;;;;;;-144.47;100.00;63004.59;4993851;28;20025;-67
2022/12/21 05:29:38;;;;;;;26.63;12.18;;;;;;;-144.47;100.00;63032.50;4994660;28;20041;-68
2022/12/21 05:32:04;;;;;;;27.83;13.50;;;;;;;-144.47;100.00;63060.38;4991776;28;20638;-69
2022/12/21 05:34:29;;;;;;;27.30;13.52;;;;;;;-144.47;100.00;63030.50;4989378;28;20034;-68
2022/12/21 05:36:55;;;;;;;26.05;12.73;;;;;;;-144.47;100.00;63042.47;4993451;28;20568;-69
2022/12/21 05:39:20;;;;;;;27.88;12.88;;;;;;;-144.47;100.00;63024.53;5002341;28;20664;-67
2022/12/21 05:41:46;;;;;;;24.98;12.98;;;;;;;-144.47;100.00;63008.59;4991442;28;20030;-68
2022/12/21 05:44:11;;;;;;;22.35;12.40;;;;;;;-144.47;100.00;63032.50;4983689;28;20444;-66
2022/12/21 05:46:36;;;;;;;24.55;13.18;;;;;;;-144.47;100.00;63058.38;4993811;28;20034;-68
2022/12/21 05:49:02;;;;;;;25.08;11.77;;;;;;;-144.47;100.00;63050.41;4994924;28;20054;-68
2022/12/21 05:51:28;;;;;;;28.80;12.52;;;;;;;-144.47;100.00;63096.25;4991555;28;20026;-67
2022/12/21 05:53:53;;;;;;;20.92;10.95;;;;;;;-144.47;100.00;63096.25;4997451;28;20057;-67
2022/12/21 05:56:19;;;;;;;25.15;10.93;;;;;;;-144.47;100.00;63118.16;5001001;28;20499;-68
2022/12/21 05:58:45;;;;;;;21.85;11.18;;;;;;;-144.47;100.00;63132.09;4991588;28;20036;-67
2022/12/21 06:01:11;;;;;;;33.22;17.25;;;;;;;-144.47;100.00;63150.03;4991748;28;20089;-67
2022/12/21 06:03:38;;;;;;;36.13;17.27;;;;;;;-144.47;100.00;63181.91;4990389;28;20038;-68
2022/12/21 06:06:06;;;;;;;28.30;14.13;;;;;;;-144.47;100.00;63177.91;5001938;28;20029;-68
2022/12/21 06:08:32;;;;;;;32.75;16.45;;;;;;;-144.47;100.00;63193.84;4998003;28;20026;-69
2022/12/21 06:11:03;;;;;;;46.00;19.80;;;;;;;-144.47;100.00;63263.59;4994639;28;20038;-67
2022/12/21 06:13:29;;;;;;;42.47;20.48;;;;;;;-144.47;100.00;63257.59;4991177;28;20096;-69
2022/12/21 06:15:54;;;;;;;32.40;16.73;;;;;;;-144.47;100.00;63283.50;4991932;28;20030;-69
2022/12/21 06:18:19;;;;;;;34.50;19.13;;;;;;;-144.47;100.00;63279.53;4989529;28;20018;-69
2022/12/21 06:20:51;;;;;;;28.90;15.35;;;;;;;-144.47;100.00;63341.28;4991184;28;20030;-68
2022/12/21 06:23:16;;;;;;;23.58;13.75;;;;;;;-144.47;100.00;63363.19;5006050;28;20027;-68
2022/12/21 06:25:42;;;;;;;27.75;13.73;;;;;;;-144.47;100.00;63389.09;4991441;28;20026;-67
2022/12/21 06:28:07;;;;;;;24.38;13.30;;;;;;;-144.47;100.00;63371.16;5001076;28;20050;-68
2022/12/21 06:30:32;;;;;;;22.00;13.55;;;;;;;-144.47;100.00;63381.13;4991976;28;20492;-65
2022/12/21 06:32:58;;;;;;;30.55;14.02;;;;;;;-144.47;100.00;63424.97;4992648;28;20684;-67
2022/12/21 06:35:23;;;;;;;26.52;13.75;;;;;;;-144.47;100.00;63454.84;4991500;28;20553;-66
2022/12/21 06:37:48;;;;;;;27.95;12.85;;;;;;;-144.47;100.00;63448.88;4992380;28;20036;-67
2022/12/21 06:40:14;;;;;;;22.23;11.27;;;;;;;-144.47;100.00;63438.91;4991502;28;20517;-67
2022/12/21 06:42:39;;;;;;;25.75;11.73;;;;;;;-144.47;100.00;63482.75;4992964;28;20039;-68
2022/12/21 06:45:06;;;;;;;22.85;12.35;;;;;;;-144.47;100.00;63472.78;4991545;28;20019;-68
2022/12/21 06:47:31;;;;;;;29.95;13.18;;;;;;;-144.47;100.00;63476.75;4990258;28;20412;-68
2022/12/21 06:49:56;;;;;;;33.15;12.55;;;;;;;-144.47;100.00;63476.75;4991898;28;20502;-69
2022/12/21 06:52:22;;;;;;;30.67;16.17;;;;;;;-144.47;100.00;63472.78;4991814;28;20489;-68
2022/12/21 06:54:47;;;;;;;31.02;15.32;;;;;;;-144.47;100.00;63510.63;4993308;28;20457;-67
2022/12/21 06:57:13;;;;;;;28.30;14.65;;;;;;;-144.47;100.00;63472.78;4993016;28;20019;-67
2022/12/21 06:59:38;;;;;;;30.20;15.70;;;;;;;-144.47;100.00;63482.75;4990308;28;20034;-67
2022/12/21 07:02:03;;;;;;;27.38;13.43;;;;;;;-144.47;100.00;63430.94;4991971;28;20040;-68
2022/12/21 07:04:29;;;;;;;23.00;12.70;;;;;;;-144.47;100.00;63430.94;4991351;28;20113;-67
2022/12/21 07:06:54;;;;;;;23.50;12.23;;;;;;;-144.47;100.00;63409.03;4991011;28;20022;-68
2022/12/21 07:09:19;;;;;;;24.00;11.32;;;;;;;-144.47;100.00;63405.03;4991404;28;20030;-67
2022/12/21 07:11:46;;;;;;;26.17;11.32;;;;;;;-144.47;100.00;63393.09;4990469;28;20058;-68
2022/12/21 07:14:12;;;;;;;23.05;10.35;;;;;;;-144.47;100.00;63407.03;4989413;28;20614;-67
2022/12/21 07:16:37;;;;;;;26.00;10.93;;;;;;;-144.47;100.00;63343.28;4990677;28;20117;-67
2022/12/21 07:19:03;;;;;;;20.67;9.15;;;;;;;-144.47;100.00;63476.75;4989620;28;20025;-68
2022/12/21 07:21:28;;;;;;;19.05;9.25;;;;;;;-144.47;100.00;63407.03;4990919;28;20468;-67
2022/12/21 07:23:54;;;;;;;26.75;13.32;;;;;;;-144.47;100.00;63345.28;4990805;28;20026;-67
2022/12/21 07:26:22;;;;;;;30.48;16.17;;;;;;;-144.47;100.00;63235.69;4989558;28;20113;-67
2022/12/21 07:28:48;;;;;;;23.98;12.27;;;;;;;-144.47;100.00;63158.00;4989156;28;20053;-66
2022/12/21 07:31:16;;;;;;;28.52;13.10;;;;;;;-144.47;100.00;62974.72;4994068;28;20514;-68
2022/12/21 07:33:42;;;;;;;27.38;14.98;;;;;;;-144.47;100.00;62737.69;5004545;28;20022;-65
2022/12/21 07:36:09;;;;;;;24.20;11.43;;;;;;;-144.47;100.00;62474.75;4990168;28;20412;-67
2022/12/21 07:38:36;;;;;;;23.92;10.05;;;;;;;-144.47;100.00;62271.59;4989934;28;20027;-68
2022/12/21 07:41:03;;;;;;;20.90;10.05;;;;;;;-144.47;100.00;62100.31;4990199;28;20030;-67
2022/12/21 07:43:30;;;;;;;19.15;9.38;;;;;;;-144.47;100.00;61952.94;4990418;28;20109;-66
2022/12/21 07:45:55;;;;;;;22.83;10.13;;;;;;;-144.47;100.00;61941.00;4991239;28;20494;-67
2022/12/21 07:48:20;;;;;;;17.73;9.73;;;;;;;-144.47;100.00;61944.97;4988952;28;20029;-67
2022/12/21 07:50:50;;;;;;;14.90;7.90;;;;;;;-144.47;100.00;61954.94;4990317;28;20034;-69
2022/12/21 07:53:16;;;;;;;17.35;9.05;;;;;;;-144.47;100.00;61875.28;4990586;28;20508;-67
2022/12/21 07:55:42;;;;;;;20.98;10.05;;;;;;;-144.47;100.00;61803.59;4996108;28;20048;-67
2022/12/21 07:58:08;;;;;;;25.75;10.32;;;;;;;-144.47;100.00;61674.16;4996123;28;20019;-66
2022/12/21 08:00:34;;;;;;;22.08;10.80;;;;;;;-144.47;100.00;61614.41;4989468;28;20026;-68
2022/12/21 08:02:59;;;;;;;22.48;11.15;;;;;;;-144.47;100.00;61459.09;4990646;28;20026;-66
2022/12/21 08:05:25;;;;;;;30.40;11.55;;;;;;;-144.47;100.00;61443.16;4990266;28;20607;-67
2022/12/21 08:07:50;;;;;;;20.05;10.82;;;;;;;-144.47;100.00;61423.25;4996704;28;20547;-68
2022/12/21 08:10:16;;;;;;;20.70;9.68;;;;;;;-144.47;100.00;61411.31;4991235;28;20027;-69
2022/12/21 08:12:44;;;;;;;19.10;9.90;;;;;;;-144.47;100.00;61385.41;4992472;28;20563;-66
2022/12/21 08:15:10;;;;;;;17.55;8.27;;;;;;;-144.47;100.00;61287.84;4991442;28;20034;-66
2022/12/21 08:17:36;;;;;;;20.08;8.02;;;;;;;-144.47;100.00;61248.03;4989801;28;20064;-66
2022/12/21 08:20:02;;;;;;;18.60;7.97;;;;;;;-144.47;100.00;61160.41;4990449;28;20026;-67
2022/12/21 08:22:28;;;;;;;19.73;8.40;;;;;;;-144.47;100.00;61130.56;4990979;28;20026;-67
2022/12/21 08:24:54;;;;;;;18.35;7.97;;;;;;;-144.47;100.00;61082.78;4980031;28;20484;-67
2022/12/21 08:27:19;;;;;;;13.68;8.20;;;;;;;-144.47;100.00;61118.63;4996731;28;20018;-67
2022/12/21 08:29:44;;;;;;;13.75;7.70;;;;;;;-144.47;100.00;61017.06;4993271;28;20018;-67
2022/12/21 08:32:10;;;;;;;14.13;6.75;;;;;;;-144.47;100.00;60841.88;5000536;28;20113;-67
2022/12/21 08:34:35;;;;;;;12.95;6.18;;;;;;;-144.47;100.00;60849.84;4993404;28;20117;-69
2022/12/21 08:37:00;;;;;;;12.75;6.88;;;;;;;-144.47;100.00;60821.97;4992939;28;20045;-66
2022/12/21 08:39:27;;;;;;;15.20;6.18;;;;;;;-144.47;100.00;60845.84;4993752;28;20022;-69
2022/12/21 08:41:52;;;;;;;12.82;6.30;;;;;;;-144.47;100.00;60802.06;4994429;28;20030;-68
2022/12/21 08:44:18;;;;;;;10.90;5.00;;;;;;;-144.47;100.00;60782.16;4992407;28;20022;-67
2022/12/21 08:46:43;;;;;;;10.02;5.45;;;;;;;-144.47;100.00;60770.22;4992185;28;20062;-67
2022/12/21 08:49:08;;;;;;;16.42;5.80;;;;;;;-144.47;100.00;60658.72;4993082;28;20445;-67
2022/12/21 08:51:34;;;;;;;12.73;5.38;;;;;;;-144.47;100.00;60602.97;4993432;28;20026;-68
2022/12/21 08:54:00;;;;;;;11.48;5.25;;;;;;;-144.47;100.00;60569.13;4993416;28;20050;-68
2022/12/21 08:56:26;;;;;;;12.43;5.75;;;;;;;-144.47;100.00;60511.41;4993868;28;20034;-69
2022/12/21 08:58:52;;;;;;;10.88;4.97;;;;;;;-144.47;99.58;60497.47;4993861;28;20105;-68
2022/12/21 09:01:19;;;;;;;12.35;6.70;;;;;;;-144.47;99.16;60467.63;4994919;28;20162;-68
2022/12/21 09:03:44;;;;;;;16.48;7.95;;;;;;;-144.47;99.36;60483.53;4992740;28;20022;-68
2022/12/21 09:06:10;;;;;;;16.17;7.75;;;;;;;-144.47;98.95;60471.59;4993142;28;20033;-65
2022/12/21 09:08:36;;;;;;;14.68;6.78;;;;;;;-144.47;98.74;60469.59;5000087;28;20030;-67
2022/12/21 09:11:04;;;;;;;14.32;6.18;;;;;;;-144.47;98.51;60413.88;4993451;28;20038;-68
2022/12/21 09:13:30;;;;;;;10.52;5.15;;;;;;;-144.47;98.38;60336.25;4991516;28;20519;-65
2022/12/21 09:15:56;;;;;;;9.90;4.75;;;;;;;-144.47;98.24;60318.31;4993395;28;20476;-67
2022/12/21 09:18:21;;;;;;;9.15;4.70;;;;;;;-144.47;97.98;60352.16;4992510;28;20031;-67
2022/12/21 09:20:47;;;;;;;11.82;4.55;;;;;;;-144.47;97.83;60334.25;4993567;28;20023;-67
2022/12/21 09:23:13;;;;;;;8.85;4.32;;;;;;;-144.47;97.66;60340.22;4993823;28;20037;-67
2022/12/21 09:25:38;;;;;;;10.52;4.47;;;;;;;-144.47;97.56;60346.19;4993585;28;20096;-66
2022/12/21 09:28:04;;;;;;;8.93;4.63;;;;;;;-144.47;97.36;60322.31;4990442;28;20042;-67
2022/12/21 09:30:30;;;;;;;9.75;4.30;;;;;;;-144.47;97.31;60320.31;4998890;28;20017;-67
2022/12/21 09:32:56;;;;;;;8.23;3.70;;;;;;;-144.47;97.08;60308.38;5001685;28;20041;-69
2022/12/21 09:35:21;;;;;;;12.10;5.30;;;;;;;-144.47;96.89;60308.38;5000831;28;20125;-69
2022/12/21 09:37:47;;;;;;;10.55;4.30;;;;;;;-144.47;96.76;60330.28;4992491;28;20029;-67
2022/12/21 09:40:15;;;;;;;8.23;4.30;;;;;;;-144.47;96.32;60280.50;4994423;28;20484;-68
2022/12/21 09:42:54;;;;;;;12.03;5.07;;;;;;;-144.47;96.46;60264.59;4993625;28;20026;-69
2022/12/21 09:45:34;;;;;;;9.70;4.70;;;;;;;-144.47;96.38;60234.72;4993419;28;20160;-65
2022/12/21 09:48:06;;;;;;;10.00;4.88;;;;;;;-144.47;95.81;60192.94;4982133;28;20037;-67
2022/12/21 09:51:07;;;;;;;10.20;4.90;;;;;;;-144.47;95.51;60186.94;4993257;28;20018;-67
2022/12/21 09:53:39;;;;;;;11.63;4.72;;;;;;;-144.47;95.45;60192.94;4976420;28;20034;-69
2022/12/21 09:56:06;;;;;;;13.23;5.35;;;;;;;-144.47;94.78;60206.84;4993151;28;20026;-68
2022/12/21 09:58:45;;;;;;;9.73;5.07;;;;;;;-144.47;94.44;60184.97;4991241;28;20480;-68
2022/12/21 10:01:10;;;;;;;;;;;;;;;-144.47;94.03;60210.84;4993887;28;20500;-67
2022/12/21 10:04:17;;;;;;;14.48;4.88;;;;;;;-144.47;94.05;60155.09;4991152;28;19914;-68
2022/12/21 10:06:46;;;;;;;7.88;4.03;;;;;;;-144.47;93.89;60165.06;4990391;28;20511;-68
2022/12/21 10:09:50;;;;;;;8.57;4.22;;;;;;;-144.47;93.73;60192.94;5000960;28;20027;-67
2022/12/21 10:12:27;;;;;;;11.43;5.97;;;;;;;-144.47;93.63;60202.88;4982412;28;20034;-67
2022/12/21 10:15:15;;;;;;;8.90;4.00;;;;;;;-144.47;93.51;60186.94;4992223;28;20034;-66
2022/12/21 10:18:02;;;;;;;11.02;6.05;;;;;;;-144.47;93.42;60204.88;4991958;28;20046;-68
2022/12/21 10:20:39;;;;;;;7.65;3.63;;;;;;;-144.47;93.46;60180.97;4981153;28;20025;-65
2022/12/21 10:23:18;;;;;;;8.20;3.90;;;;;;;-144.47;93.37;60236.72;4991765;28;20153;-68
2022/12/21 10:25:47;;;;;;;8.85;3.40;;;;;;;-144.47;93.46;60222.78;4991687;28;20022;-67
2022/12/21 10:28:47;;;;;;;6.53;3.47;;;;;;;-144.47;93.42;60240.69;4995051;28;20436;-67
2022/12/21 10:31:20;;;;;;;7.22;3.92;;;;;;;-144.47;93.30;60230.75;4996935;28;20365;-67
2022/12/21 10:33:50;;;;;;;9.68;3.53;;;;;;;-144.47;93.08;60268.56;5003475;28;20487;-67
2022/12/21 10:36:22;;;;;;;6.65;3.30;;;;;;;-144.47;93.23;60258.63;4991079;28;20030;-67
2022/12/21 10:38:48;;;;;;;8.45;3.08;;;;;;;-144.47;93.36;60308.38;4990905;28;20060;-68
2022/12/21 10:41:21;;;;;;;9.05;3.00;;;;;;;-144.47;93.57;60302.41;4992078;28;20509;-68
2022/12/21 10:43:49;;;;;;;5.90;3.15;;;;;;;-144.47;93.39;60326.28;4990797;28;20034;-65
2022/12/21 10:46:18;;;;;;;6.70;2.80;;;;;;;-144.47;93.71;60324.28;4990515;28;20034;-67
2022/12/21 10:48:45;;;;;;;7.32;2.85;;;;;;;-144.47;93.71;60320.31;4989371;28;20126;-66
2022/12/21 10:51:33;;;;;;;5.50;2.70;;;;;;;-144.47;93.51;60302.41;4991434;28;20033;-66
2022/12/21 10:54:02;;;;;;;3.80;2.08;;;;;;;-144.47;93.67;60296.44;4991711;28;20449;-69
2022/12/21 10:56:30;;;;;;;4.60;2.45;;;;;;;-144.47;93.93;60340.22;4992356;28;20320;-68
2022/12/21 10:59:05;;;;;;;6.43;2.90;;;;;;;-144.47;93.86;60286.47;4988861;28;20460;-68
2022/12/21 11:01:33;;;;;;;8.43;2.03;;;;;;;-144.47;93.63;60310.38;4991843;28;20061;-68
2022/12/21 11:04:24;;;;;;;4.50;2.20;;;;;;;-144.47;93.25;60338.22;4991804;28;20026;-67
2022/12/21 11:07:00;;;;;;;5.50;2.45;;;;;;;-144.47;92.88;60324.28;4990200;28;20061;-66
2022/12/21 11:09:38;;;;;;;5.30;2.10;;;;;;;-144.47;92.23;60300.41;4984674;28;20080;-69
2022/12/21 11:12:22;;;;;;;5.53;2.00;;;;;;;-144.47;92.02;60332.25;4991422;28;20026;-66
2022/12/21 11:14:49;;;;;;;4.95;1.90;;;;;;;-144.47;91.81;60393.97;4991379;28;20026;-67
2022/12/21 11:17:24;;;;;;;5.03;2.15;;;;;;;-144.47;91.81;60427.81;4992186;28;20113;-67
2022/12/21 11:19:57;;;;;;;5.07;2.35;;;;;;;-144.47;91.99;60463.63;4991420;28;20025;-68
2022/12/21 11:22:27;;;;;;;4.30;2.00;;;;;;;-144.47;92.26;60525.34;4990227;28;20081;-67